Christmas Island, Christmas Island

1:45 PM +07 on April 26, 2017 (GMT +0700)
Christmas Island | | Change Station

Elev 915 ft 10.43 °S, 105.68 °E | Updated 15 minutes ago

Overcast
Overcast
79 °F
Feels Like 79 °F
N
13
Wind Variable Wind from ENE

Today
High -- | Low -- °F
--% Chance of Precip.
Yesterday
High -- | Low -- °F
Precip. -- in
Pressure 29.89 in
Visibility 6.2 miles
Clouds Mostly Cloudy 500 ft
Overcast 800 ft
Dew Point 73 °F
Humidity 83%
Rainfall 0.00 in
Snow Depth Not available.
6:01 AM 5:48 PM
Waning Crescent, 0% visible
SPECI YPXM 260630Z AUTO 07011KT 9999 // BKN005 OVC008 26/23 Q1012
Pressure 29.89 in
Visibility 6.2 miles
Clouds Mostly Cloudy 500 ft
Overcast 800 ft
Dew Point 73 °F
Humidity 83%
Rainfall 0.00 in
Snow Depth Not available.
6:01 AM 5:48 PM
Waning Crescent, 0% visible
SPECI YPXM 260630Z AUTO 07011KT 9999 // BKN005 OVC008 26/23 Q1012

Get Severe Weather Alerts

Thanks for signing up!

Be on the lookout for a verification email in your inbox.

You'll start receiving the daily forecast at 8 AM.

×

10-Day Weather Forecast

No radar image for this location.
×

Almanac

Astronomy

Apr. 26, 2017 Rise Set
Actual Time
Civil Twilight
Nautical Twilight
Astronomical Twilight
Moon
Length of Visible Light
Length of Day
Tomorrow will be .
, % of the Moon is Illuminated

Today's Extremes

Country Highs Country Lows

Community

WunderPhotos

WunderBlog® & News

Nearby

Air Quality

  Air Quality AQ Index Pollutant
Not available.

Snow Depth

Station Depth Elevation

Earthquake Activity

City Distance Mag. Time & Date
Minimum magnitude displayed is 2.5.

Coastal Water Temperatures

Place Temperature

Stations

Nearby Weather Stations

Station Location Temp. Windchill Dew Point Humidity Wind Precip. Elev Updated Type